createdAt,value
2022-11-14T00:02:03.408Z,97.99
2022-11-14T00:04:21.709Z,98.09
2022-11-14T00:08:07.320Z,98.19
2022-11-14T00:14:08.170Z,98.19
2022-11-14T00:16:07.625Z,98.19
2022-11-14T00:20:49.442Z,98.40
2022-11-14T00:22:45.849Z,98.50
2022-11-14T00:25:59.064Z,98.55
2022-11-14T00:27:40.904Z,98.55
2022-11-14T00:29:38.840Z,98.65
2022-11-14T00:31:38.311Z,98.65
2022-11-14T00:36:46.736Z,98.75
2022-11-14T00:38:15.760Z,98.75
2022-11-14T00:44:01.280Z,98.86
2022-11-14T00:46:46.813Z,98.86
2022-11-14T00:49:14.861Z,98.96
2022-11-14T00:50:45.768Z,98.86
2022-11-14T00:53:04.337Z,98.96
2022-11-14T00:55:42.759Z,98.96
2022-11-14T00:58:35.349Z,98.96
2022-11-14T01:00:13.352Z,98.96
2022-11-14T01:03:43.268Z,98.96
2022-11-14T01:06:01.322Z,98.96
2022-11-14T01:08:33.701Z,99.01
2022-11-14T01:12:48.288Z,99.11
2022-11-14T01:14:47.249Z,99.11
2022-11-14T01:16:19.097Z,99.22
2022-11-14T01:17:47.227Z,99.22
2022-11-14T01:21:39.844Z,99.22
2022-11-14T01:23:58.610Z,99.32
2022-11-14T01:28:27.817Z,99.32
2022-11-14T01:30:27.350Z,99.32
2022-11-14T01:31:58.497Z,99.32
2022-11-14T01:34:26.464Z,99.32
2022-11-14T01:35:53.469Z,99.32
2022-11-14T01:41:48.818Z,99.43
2022-11-14T01:45:13.665Z,99.43
2022-11-14T01:46:13.601Z,99.43
2022-11-14T01:47:13.892Z,99.43
2022-11-14T01:51:33.284Z,99.43
2022-11-14T01:53:49.016Z,99.43
2022-11-14T01:55:39.647Z,99.43
2022-11-14T01:59:20.642Z,99.43
2022-11-14T02:02:04.996Z,99.47
2022-11-14T02:04:06.670Z,99.47
2022-11-14T02:06:46.144Z,99.47
2022-11-14T02:10:57.231Z,99.37
2022-11-14T02:12:17.862Z,99.37
2022-11-14T02:14:42.369Z,99.37
2022-11-14T02:18:34.861Z,99.47
2022-11-14T02:23:53.492Z,99.57
2022-11-14T02:35:08.911Z,99.72
2022-11-14T02:43:17.347Z,99.62
2022-11-14T02:48:54.925Z,99.62
2022-11-14T02:52:41.791Z,99.62
2022-11-14T02:54:43.699Z,99.52
2022-11-14T02:57:42.939Z,99.52
2022-11-14T02:59:12.645Z,99.52
2022-11-14T03:01:05.850Z,99.56
2022-11-14T03:03:05.497Z,99.56
2022-11-14T03:08:37.398Z,99.56
2022-11-14T03:10:36.690Z,99.56
2022-11-14T03:14:56.402Z,99.46
2022-11-14T03:17:42.206Z,99.46
2022-11-14T03:21:20.121Z,99.46
2022-11-14T03:22:51.921Z,99.46
2022-11-14T03:24:40.034Z,99.46
2022-11-14T03:29:56.580Z,99.46
2022-11-14T03:35:28.261Z,99.61
2022-11-14T03:39:34.727Z,99.51
2022-11-14T03:41:41.699Z,99.51
2022-11-14T03:44:05.216Z,99.40
2022-11-14T03:47:48.149Z,99.51
2022-11-14T03:50:32.805Z,99.40
2022-11-14T03:53:01.581Z,99.40
2022-11-14T03:57:48.274Z,99.51
2022-11-14T04:05:33.567Z,99.61
2022-11-14T04:07:03.833Z,99.61
2022-11-14T04:09:58.710Z,99.51
2022-11-14T04:13:17.038Z,99.51
2022-11-14T04:17:27.318Z,99.55
2022-11-14T04:20:35.214Z,99.51
2022-11-14T04:41:11.913Z,99.65
2022-11-14T04:44:28.828Z,99.65
2022-11-14T04:47:48.715Z,99.76
2022-11-14T04:49:18.589Z,99.76
2022-11-14T04:50:46.569Z,99.76
2022-11-14T04:52:47.376Z,99.76
2022-11-14T04:55:53.670Z,99.86
2022-11-14T04:58:53.970Z,99.76
2022-11-14T05:01:11.664Z,99.76
2022-11-14T05:08:07.978Z,99.86
2022-11-14T05:18:33.803Z,99.99
2022-11-14T05:23:30.946Z,99.99
2022-11-14T05:31:08.118Z,99.99
2022-11-14T05:33:00.792Z,99.99
2022-11-14T05:35:18.598Z,99.99
2022-11-14T05:37:17.937Z,99.99
2022-11-14T05:40:15.437Z,99.99
2022-11-14T05:47:24.583Z,99.99
2022-11-14T05:49:52.550Z,99.99
2022-11-14T05:54:31.703Z,99.99
2022-11-14T05:57:58.832Z,99.99
2022-11-14T06:00:25.852Z,99.99
2022-11-14T06:01:25.824Z,99.99
2022-11-14T06:02:46.824Z,99.99
2022-11-14T06:06:43.191Z,99.99
2022-11-14T06:10:58.103Z,99.99
2022-11-14T06:13:24.936Z,99.99
2022-11-14T06:16:07.412Z,99.99
2022-11-14T06:18:05.354Z,99.99
2022-11-14T06:19:34.326Z,99.99
2022-11-14T06:21:03.207Z,99.99
2022-11-14T06:22:52.985Z,99.99
2022-11-14T06:26:09.052Z,99.99
2022-11-14T06:29:32.718Z,99.99
2022-11-14T06:30:58.250Z,99.99
2022-11-14T06:32:27.919Z,99.99
2022-11-14T06:33:57.105Z,99.99
2022-11-14T06:35:26.273Z,99.99
2022-11-14T06:37:55.423Z,99.99
2022-11-14T06:43:10.559Z,99.99
2022-11-14T06:47:04.449Z,99.99
2022-11-14T06:58:05.802Z,99.99
2022-11-14T06:59:55.468Z,99.99
2022-11-14T07:01:27.326Z,99.99
2022-11-14T07:05:55.424Z,99.99
2022-11-14T07:08:26.315Z,99.99
2022-11-14T07:10:28.161Z,99.99
2022-11-14T07:15:07.348Z,99.99
2022-11-14T07:16:39.199Z,99.99
2022-11-14T07:20:17.805Z,99.99
2022-11-14T07:22:17.146Z,99.99
2022-11-14T07:25:49.754Z,99.99
2022-11-14T07:29:38.239Z,99.99
2022-11-14T07:31:08.022Z,99.99
2022-11-14T07:33:07.187Z,99.99
2022-11-14T07:34:35.523Z,99.99
2022-11-14T07:37:41.744Z,99.99
2022-11-14T07:40:10.368Z,99.99
2022-11-14T07:41:42.245Z,99.99
2022-11-14T07:44:41.115Z,99.99
2022-11-14T07:46:31.875Z,99.99
2022-11-14T07:47:59.791Z,99.99
2022-11-14T07:52:20.143Z,99.99
2022-11-14T07:56:02.270Z,99.99
2022-11-14T07:57:28.569Z,99.99
2022-11-14T08:04:38.391Z,99.99
2022-11-14T08:06:41.426Z,99.99
2022-11-14T08:08:44.959Z,99.99
2022-11-14T08:12:03.534Z,99.99
2022-11-14T08:14:13.218Z,99.99
2022-11-14T08:15:23.427Z,99.99
2022-11-14T08:17:20.487Z,99.99
2022-11-14T08:18:53.329Z,99.99
2022-11-14T08:21:11.245Z,99.99
2022-11-14T08:22:41.607Z,99.99
2022-11-14T08:24:29.904Z,99.99
2022-11-14T08:27:59.061Z,99.99
2022-11-14T08:30:56.841Z,99.99
2022-11-14T08:33:28.581Z,99.87
2022-11-14T08:36:46.047Z,99.77
2022-11-14T08:38:13.945Z,99.56
2022-11-14T08:43:44.303Z,99.31
2022-11-14T08:46:12.830Z,99.10
2022-11-14T08:50:12.658Z,98.85
2022-11-14T08:58:54.499Z,97.97
2022-11-14T09:00:24.482Z,97.77
2022-11-14T09:01:53.648Z,97.56
2022-11-14T09:03:23.630Z,97.25
2022-11-14T09:04:52.469Z,97.14
2022-11-14T09:06:51.288Z,96.94
2022-11-14T09:08:53.120Z,96.83
2022-11-14T09:10:23.010Z,96.79
2022-11-14T09:12:12.110Z,96.69
2022-11-14T09:18:03.287Z,96.44
2022-11-14T09:20:35.202Z,96.23
2022-11-14T09:22:03.302Z,95.92
2022-11-14T09:23:32.684Z,95.81
2022-11-14T09:25:04.096Z,95.71
2022-11-14T09:27:00.655Z,95.61
2022-11-14T09:31:04.756Z,95.36
2022-11-14T09:32:34.714Z,95.25
2022-11-14T09:35:22.805Z,95.00
2022-11-14T09:38:44.715Z,94.90
2022-11-14T09:41:09.128Z,94.54
2022-11-14T09:43:37.591Z,94.44
2022-11-14T09:46:24.654Z,93.68
2022-11-14T09:47:53.533Z,93.16
2022-11-14T09:50:26.146Z,92.91
2022-11-14T09:53:12.377Z,92.35
2022-11-14T09:55:09.741Z,91.42
2022-11-14T09:57:09.647Z,90.55
2022-11-14T09:58:41.486Z,89.94
2022-11-14T10:02:08.947Z,89.28
2022-11-14T10:04:58.482Z,88.47
2022-11-14T10:06:28.414Z,86.99
2022-11-14T10:10:08.664Z,84.71
2022-11-14T10:12:05.581Z,82.13
2022-11-14T10:14:56.141Z,76.89
2022-11-14T10:17:51.054Z,75.10
2022-11-14T10:20:13.024Z,72.82
2022-11-14T10:22:10.081Z,70.31
2022-11-14T10:24:13.086Z,68.71
2022-11-14T10:26:02.540Z,67.55
2022-11-14T10:28:05.207Z,66.20
2022-11-14T10:29:31.518Z,64.65
2022-11-14T10:32:21.513Z,59.91
2022-11-14T10:34:20.416Z,57.17
2022-11-14T10:43:03.787Z,51.48
2022-11-14T10:45:30.091Z,50.45
2022-11-14T10:48:30.960Z,48.90
2022-11-14T10:54:39.100Z,47.77
2022-11-14T10:56:37.902Z,47.52
2022-11-14T11:02:57.943Z,45.99
2022-11-14T11:05:08.142Z,46.72
2022-11-14T11:07:40.568Z,46.89
2022-11-14T11:11:02.467Z,45.18
2022-11-14T11:16:08.103Z,46.94
2022-11-14T11:18:43.130Z,46.34
2022-11-14T11:22:52.254Z,46.14
2022-11-14T11:24:21.540Z,46.64
2022-11-14T11:26:20.317Z,46.73
2022-11-14T11:27:49.223Z,47.44
2022-11-14T11:30:18.394Z,47.04
2022-11-14T11:32:36.326Z,46.03
2022-11-14T11:34:55.248Z,47.79
2022-11-14T11:39:16.541Z,47.41
2022-11-14T11:41:33.191Z,48.06
2022-11-14T11:44:04.113Z,48.96
2022-11-14T11:45:35.873Z,49.07
2022-11-14T11:47:03.534Z,50.20
2022-11-14T11:48:34.375Z,49.49
2022-11-14T11:53:33.718Z,49.16
2022-11-14T11:56:35.413Z,49.67
2022-11-14T11:58:23.872Z,49.69
2022-11-14T11:59:36.372Z,49.99
2022-11-14T12:01:34.609Z,50.87
2022-11-14T12:03:03.611Z,52.76
2022-11-14T12:05:31.539Z,55.76
2022-11-14T12:08:03.210Z,59.14
2022-11-14T12:09:55.622Z,60.72
2022-11-14T12:11:01.197Z,62.17
2022-11-14T12:12:30.129Z,62.74
2022-11-14T12:13:59.994Z,63.38
2022-11-14T12:15:31.837Z,64.20
2022-11-14T12:17:49.571Z,64.87
2022-11-14T12:21:30.439Z,67.38
2022-11-14T12:27:21.984Z,67.61
2022-11-14T12:31:00.196Z,68.33
2022-11-14T12:35:39.358Z,69.65
2022-11-14T12:38:49.685Z,70.50
2022-11-14T12:40:46.683Z,70.81
2022-11-14T12:44:04.347Z,71.15
2022-11-14T12:45:54.908Z,71.25
2022-11-14T12:47:44.585Z,72.00
2022-11-14T12:50:13.455Z,72.72
2022-11-14T12:52:32.097Z,73.16
2022-11-14T12:55:23.966Z,73.78
2022-11-14T12:56:58.844Z,74.08
2022-11-14T12:58:29.670Z,73.98
2022-11-14T13:00:27.913Z,74.29
2022-11-14T13:01:57.815Z,74.19
2022-11-14T13:05:26.011Z,74.29
2022-11-14T13:08:34.308Z,74.80
2022-11-14T13:11:34.272Z,74.97
2022-11-14T13:14:02.257Z,74.70
2022-11-14T13:15:31.458Z,75.11
2022-11-14T13:18:01.303Z,75.11
2022-11-14T13:19:30.219Z,75.11
2022-11-14T13:21:01.080Z,75.42
2022-11-14T13:22:01.040Z,75.62
2022-11-14T13:23:01.031Z,75.73
2022-11-14T13:24:01.032Z,75.52
2022-11-14T13:25:32.921Z,75.73
2022-11-14T13:28:00.149Z,75.82
2022-11-14T13:30:29.121Z,75.82
2022-11-14T13:32:38.931Z,76.03
2022-11-14T13:34:36.872Z,76.34
2022-11-14T13:39:32.913Z,75.82
2022-11-14T13:43:02.816Z,76.34
2022-11-14T13:44:31.748Z,76.75
2022-11-14T13:46:02.596Z,76.65
2022-11-14T13:47:30.101Z,76.85
2022-11-14T13:49:00.076Z,76.54
2022-11-14T13:50:28.974Z,76.75
2022-11-14T13:52:17.668Z,76.95
2022-11-14T13:54:53.488Z,76.85
2022-11-14T13:57:41.406Z,76.61
2022-11-14T13:59:03.419Z,76.72
2022-11-14T13:59:41.337Z,76.72
2022-11-14T14:00:41.324Z,76.81
2022-11-14T14:02:10.390Z,77.02
2022-11-14T14:04:14.371Z,77.06
2022-11-14T14:06:43.873Z,77.06
2022-11-14T14:08:14.890Z,77.16
2022-11-14T14:10:12.554Z,77.16
2022-11-14T14:14:36.687Z,77.36
2022-11-14T14:16:28.040Z,77.57
2022-11-14T14:18:49.264Z,77.87
2022-11-14T14:20:19.248Z,78.22
2022-11-14T14:21:48.787Z,78.12
2022-11-14T14:25:56.208Z,78.22
2022-11-14T14:29:04.917Z,78.53
2022-11-14T14:31:39.906Z,78.74
2022-11-14T14:33:08.752Z,78.63
2022-11-14T14:40:38.255Z,78.94
2022-11-14T14:43:06.996Z,79.24
2022-11-14T14:44:37.029Z,79.04
2022-11-14T14:49:04.640Z,79.45
2022-11-14T14:53:09.657Z,79.45
2022-11-14T14:54:37.900Z,79.55
2022-11-14T14:56:29.772Z,79.66
2022-11-14T14:57:57.813Z,79.75
2022-11-14T15:01:10.897Z,79.75
2022-11-14T15:03:10.648Z,79.75
2022-11-14T15:08:34.291Z,79.75
2022-11-14T15:11:43.589Z,79.75
2022-11-14T15:13:16.014Z,79.75
2022-11-14T15:15:05.703Z,79.75
2022-11-14T15:18:03.399Z,79.86
2022-11-14T15:26:46.785Z,80.17
2022-11-14T15:28:44.426Z,80.27
2022-11-14T15:31:34.142Z,80.47
2022-11-14T15:33:43.309Z,80.68
2022-11-14T15:35:42.416Z,80.58
2022-11-14T15:37:11.696Z,80.68
2022-11-14T15:39:03.889Z,80.58
2022-11-14T15:40:36.787Z,80.58
2022-11-14T15:42:23.387Z,80.68
2022-11-14T15:45:11.158Z,80.78
2022-11-14T15:46:59.845Z,80.68
2022-11-14T15:49:28.656Z,80.68
2022-11-14T15:52:38.605Z,80.88
2022-11-14T15:54:09.484Z,80.78
2022-11-14T15:57:37.658Z,80.99
2022-11-14T16:01:28.421Z,81.20
2022-11-14T16:04:00.580Z,81.40
2022-11-14T16:05:59.758Z,81.29
2022-11-14T16:09:07.109Z,81.29
2022-11-14T16:10:37.024Z,81.43
2022-11-14T16:24:11.416Z,81.74
2022-11-14T16:25:41.513Z,81.85
2022-11-14T16:27:13.367Z,81.95
2022-11-14T16:28:40.408Z,82.05
2022-11-14T16:30:32.047Z,82.05
2022-11-14T16:32:19.150Z,81.95
2022-11-14T16:34:08.893Z,81.95
2022-11-14T16:38:33.016Z,82.05
2022-11-14T16:40:00.383Z,82.05
2022-11-14T16:41:31.237Z,82.05
2022-11-14T16:43:21.202Z,82.15
2022-11-14T16:45:23.616Z,82.26
2022-11-14T16:48:03.979Z,82.26
2022-11-14T16:50:26.871Z,82.26
2022-11-14T16:53:51.932Z,82.36
2022-11-14T16:57:22.109Z,82.36
2022-11-14T17:02:17.679Z,82.56
2022-11-14T17:04:40.066Z,82.67
2022-11-14T17:06:10.401Z,82.67
2022-11-14T17:09:18.810Z,82.67
2022-11-14T17:10:55.554Z,82.67
2022-11-14T17:12:21.040Z,82.77
2022-11-14T17:14:20.356Z,82.87
2022-11-14T17:16:20.986Z,82.87
2022-11-14T17:18:12.911Z,82.67
2022-11-14T17:19:42.806Z,82.67
2022-11-14T17:20:42.754Z,82.67
2022-11-14T17:21:42.761Z,82.77
2022-11-14T17:22:42.754Z,82.87
2022-11-14T17:24:13.985Z,82.87
2022-11-14T17:25:43.982Z,82.97
2022-11-14T17:27:13.915Z,82.97
2022-11-14T17:28:44.802Z,82.97
2022-11-14T17:30:14.526Z,83.07
2022-11-14T17:32:16.203Z,83.07
2022-11-14T17:35:24.263Z,83.07
2022-11-14T17:36:53.612Z,83.07
2022-11-14T17:40:23.350Z,83.18
2022-11-14T17:45:15.405Z,83.18
2022-11-14T17:47:13.843Z,83.28
2022-11-14T17:52:08.689Z,83.49
2022-11-14T17:54:41.503Z,83.49
2022-11-14T17:57:11.352Z,83.73
2022-11-14T17:59:42.681Z,83.73
2022-11-14T18:01:30.994Z,83.83
2022-11-14T18:04:05.754Z,83.80
2022-11-14T18:05:36.555Z,83.94
2022-11-14T18:07:32.523Z,84.04
2022-11-14T18:09:01.480Z,84.14
2022-11-14T18:10:31.352Z,84.25
2022-11-14T18:12:31.505Z,84.25
2022-11-14T18:14:20.257Z,84.34
2022-11-14T18:17:12.782Z,84.45
2022-11-14T18:19:06.059Z,84.66
2022-11-14T18:20:35.116Z,84.66
2022-11-14T18:22:04.251Z,84.76
2022-11-14T18:24:05.028Z,84.76
2022-11-14T18:27:34.481Z,84.96
2022-11-14T18:29:03.638Z,84.96
2022-11-14T18:31:01.166Z,84.96
2022-11-14T18:32:50.191Z,84.96
2022-11-14T18:34:23.335Z,85.17
2022-11-14T18:36:28.040Z,85.38
2022-11-14T18:37:54.173Z,85.38
2022-11-14T18:41:32.697Z,85.47
2022-11-14T18:43:01.139Z,85.47
2022-11-14T18:44:32.997Z,85.58
2022-11-14T18:46:34.397Z,85.58
2022-11-14T18:49:04.799Z,85.68
2022-11-14T18:53:51.680Z,85.78
2022-11-14T18:56:52.319Z,85.78
2022-11-14T18:58:23.688Z,85.78
2022-11-14T19:02:44.991Z,85.89
2022-11-14T19:19:50.813Z,86.40
2022-11-14T19:29:21.766Z,86.71
2022-11-14T19:32:46.425Z,86.81
2022-11-14T19:34:20.004Z,86.81
2022-11-14T19:37:00.451Z,86.81
2022-11-14T19:38:29.530Z,86.81
2022-11-14T19:39:57.402Z,86.91
2022-11-14T19:43:33.992Z,86.95
2022-11-14T19:48:49.484Z,87.05
2022-11-14T19:57:45.946Z,87.26
2022-11-14T20:02:01.754Z,87.37
2022-11-14T20:06:32.090Z,87.67
2022-11-14T20:11:22.325Z,87.57
2022-11-14T20:25:22.258Z,87.26
2022-11-14T20:26:51.674Z,87.05
2022-11-14T20:28:36.442Z,87.05
2022-11-14T20:30:05.472Z,87.05
2022-11-14T20:35:19.375Z,87.05
2022-11-14T20:37:09.900Z,87.05
2022-11-14T20:38:58.133Z,87.05
2022-11-14T20:40:35.265Z,87.05
2022-11-14T20:44:26.450Z,86.95
2022-11-14T20:45:58.342Z,87.05
2022-11-14T20:48:27.183Z,86.95
2022-11-14T20:50:33.513Z,86.95
2022-11-14T21:02:51.190Z,86.99
2022-11-14T21:04:20.066Z,87.10
2022-11-14T21:06:18.895Z,87.10
2022-11-14T21:09:17.795Z,87.20
2022-11-14T21:10:44.828Z,87.20
2022-11-14T21:12:14.617Z,87.20
2022-11-14T21:14:43.475Z,87.30
2022-11-14T21:17:11.764Z,87.30
2022-11-14T21:24:20.237Z,87.40
2022-11-14T21:26:19.290Z,87.45
2022-11-14T21:27:48.189Z,87.65
2022-11-14T21:29:19.491Z,87.75
2022-11-14T21:35:32.555Z,88.20
2022-11-14T21:38:48.510Z,88.41
2022-11-14T21:42:58.523Z,88.86
2022-11-14T21:46:06.124Z,89.07
2022-11-14T21:50:16.221Z,89.07
2022-11-14T22:00:21.589Z,89.31
2022-11-14T22:02:13.365Z,89.56
2022-11-14T22:04:59.898Z,89.87
2022-11-14T22:08:23.235Z,90.18
2022-11-14T22:10:12.003Z,90.18
2022-11-14T22:12:08.954Z,90.33
2022-11-14T22:14:57.217Z,90.43
2022-11-14T22:17:53.794Z,90.73
2022-11-14T22:19:25.901Z,90.84
2022-11-14T22:20:53.656Z,90.94
2022-11-14T22:22:27.048Z,90.94
2022-11-14T22:24:23.592Z,91.05
2022-11-14T22:28:53.429Z,91.19
2022-11-14T22:32:04.105Z,91.50
2022-11-14T22:33:53.383Z,91.81
2022-11-14T22:36:11.794Z,92.22
2022-11-14T22:41:38.186Z,92.53
2022-11-14T22:43:34.230Z,92.63
2022-11-14T22:45:34.177Z,92.74
2022-11-14T22:49:06.626Z,92.69
2022-11-14T22:50:33.775Z,92.69
2022-11-14T22:56:46.318Z,92.38
2022-11-14T22:58:45.493Z,92.38
2022-11-14T23:02:11.973Z,92.38
2022-11-14T23:05:38.886Z,92.29
2022-11-14T23:07:08.860Z,92.29
2022-11-14T23:12:05.083Z,92.29
2022-11-14T23:13:35.433Z,92.14
2022-11-14T23:16:34.041Z,92.14
2022-11-14T23:20:34.633Z,92.14
2022-11-14T23:22:04.566Z,92.03
2022-11-14T23:24:03.665Z,92.03
2022-11-14T23:26:32.641Z,92.03
2022-11-14T23:29:01.586Z,92.03
2022-11-14T23:31:55.281Z,92.14
2022-11-14T23:34:52.148Z,92.03
2022-11-14T23:37:43.693Z,91.93
2022-11-14T23:41:47.097Z,91.89
2022-11-14T23:46:06.831Z,91.89
2022-11-14T23:47:59.467Z,91.89
2022-11-14T23:49:27.529Z,91.89
2022-11-14T23:53:23.328Z,91.78
2022-11-14T23:56:26.457Z,91.89
